sensor_id;sensor_type;location;lat;lon;timestamp;temperature;humidity
16172;DHT22;8192;53.596;10.166;2023-05-10T00:02:01;22.80;27.10
16172;DHT22;8192;53.596;10.166;2023-05-10T00:04:28;22.80;27.00
16172;DHT22;8192;53.596;10.166;2023-05-10T00:06:55;22.80;26.90
16172;DHT22;8192;53.596;10.166;2023-05-10T00:09:23;22.80;26.90
16172;DHT22;8192;53.596;10.166;2023-05-10T00:11:51;22.80;27.10
16172;DHT22;8192;53.596;10.166;2023-05-10T00:14:18;22.80;26.80
16172;DHT22;8192;53.596;10.166;2023-05-10T00:16:47;22.80;27.00
16172;DHT22;8192;53.596;10.166;2023-05-10T00:19:14;22.80;26.80
16172;DHT22;8192;53.596;10.166;2023-05-10T00:21:45;22.80;27.30
16172;DHT22;8192;53.596;10.166;2023-05-10T00:24:12;22.80;26.90
16172;DHT22;8192;53.596;10.166;2023-05-10T00:26:40;22.80;26.90
16172;DHT22;8192;53.596;10.166;2023-05-10T00:29:11;22.80;26.80
16172;DHT22;8192;53.596;10.166;2023-05-10T00:31:40;22.80;26.60
16172;DHT22;8192;53.596;10.166;2023-05-10T00:34:07;22.80;26.70
16172;DHT22;8192;53.596;10.166;2023-05-10T00:36:39;22.80;26.90
16172;DHT22;8192;53.596;10.166;2023-05-10T00:39:10;22.80;26.80
16172;DHT22;8192;53.596;10.166;2023-05-10T00:41:40;22.80;26.90
16172;DHT22;8192;53.596;10.166;2023-05-10T00:44:09;22.80;27.00
16172;DHT22;8192;53.596;10.166;2023-05-10T00:46:45;22.80;27.10
16172;DHT22;8192;53.596;10.166;2023-05-10T00:49:13;22.80;26.70
16172;DHT22;8192;53.596;10.166;2023-05-10T00:51:44;22.80;27.00
16172;DHT22;8192;53.596;10.166;2023-05-10T00:54:14;22.80;26.90
16172;DHT22;8192;53.596;10.166;2023-05-10T00:56:41;22.80;26.60
16172;DHT22;8192;53.596;10.166;2023-05-10T00:59:09;22.80;27.00
16172;DHT22;8192;53.596;10.166;2023-05-10T01:01:36;22.80;26.90
16172;DHT22;8192;53.596;10.166;2023-05-10T01:04:05;22.80;27.00
16172;DHT22;8192;53.596;10.166;2023-05-10T01:06:34;22.80;26.90
16172;DHT22;8192;53.596;10.166;2023-05-10T01:09:01;22.80;26.90
16172;DHT22;8192;53.596;10.166;2023-05-10T01:11:28;22.80;27.30
16172;DHT22;8192;53.596;10.166;2023-05-10T01:13:56;22.80;27.30
16172;DHT22;8192;53.596;10.166;2023-05-10T01:16:26;22.80;26.70
16172;DHT22;8192;53.596;10.166;2023-05-10T01:18:54;22.80;27.00
16172;DHT22;8192;53.596;10.166;2023-05-10T01:21:29;22.80;26.80
16172;DHT22;8192;53.596;10.166;2023-05-10T01:24:26;22.80;26.80
16172;DHT22;8192;53.596;10.166;2023-05-10T01:27:20;22.80;26.70
16172;DHT22;8192;53.596;10.166;2023-05-10T01:30:14;22.80;26.70
16172;DHT22;8192;53.596;10.166;2023-05-10T01:32:53;22.80;26.90
16172;DHT22;8192;53.596;10.166;2023-05-10T01:35:36;22.70;26.80
16172;DHT22;8192;53.596;10.166;2023-05-10T01:38:09;22.70;26.80
16172;DHT22;8192;53.596;10.166;2023-05-10T01:40:47;22.70;26.80
16172;DHT22;8192;53.596;10.166;2023-05-10T01:43:19;22.70;27.00
16172;DHT22;8192;53.596;10.166;2023-05-10T01:46:02;22.70;26.90
16172;DHT22;8192;53.596;10.166;2023-05-10T01:48:39;22.70;26.80
16172;DHT22;8192;53.596;10.166;2023-05-10T01:51:09;22.80;26.60
16172;DHT22;8192;53.596;10.166;2023-05-10T01:53:37;22.70;26.70
16172;DHT22;8192;53.596;10.166;2023-05-10T01:56:11;22.70;26.70
16172;DHT22;8192;53.596;10.166;2023-05-10T01:58:43;22.70;26.70
16172;DHT22;8192;53.596;10.166;2023-05-10T02:01:14;22.70;26.80
16172;DHT22;8192;53.596;10.166;2023-05-10T02:03:43;22.70;26.50
16172;DHT22;8192;53.596;10.166;2023-05-10T02:06:13;22.70;26.50
16172;DHT22;8192;53.596;10.166;2023-05-10T02:08:41;22.70;26.40
16172;DHT22;8192;53.596;10.166;2023-05-10T02:11:11;22.70;26.60
16172;DHT22;8192;53.596;10.166;2023-05-10T02:13:39;22.70;26.40
16172;DHT22;8192;53.596;10.166;2023-05-10T02:16:08;22.80;27.00
16172;DHT22;8192;53.596;10.166;2023-05-10T02:18:36;22.80;26.30
16172;DHT22;8192;53.596;10.166;2023-05-10T02:21:04;22.80;26.30
16172;DHT22;8192;53.596;10.166;2023-05-10T02:23:34;22.80;26.30
16172;DHT22;8192;53.596;10.166;2023-05-10T02:26:02;22.80;26.40
16172;DHT22;8192;53.596;10.166;2023-05-10T02:28:33;22.80;26.40
16172;DHT22;8192;53.596;10.166;2023-05-10T02:31:04;22.70;26.50
16172;DHT22;8192;53.596;10.166;2023-05-10T02:33:38;22.70;26.40
16172;DHT22;8192;53.596;10.166;2023-05-10T02:36:12;22.70;26.30
16172;DHT22;8192;53.596;10.166;2023-05-10T02:38:40;22.70;26.10
16172;DHT22;8192;53.596;10.166;2023-05-10T02:41:08;22.70;26.20
16172;DHT22;8192;53.596;10.166;2023-05-10T02:43:37;22.70;26.60
16172;DHT22;8192;53.596;10.166;2023-05-10T02:46:08;22.70;26.60
16172;DHT22;8192;53.596;10.166;2023-05-10T02:48:35;22.70;26.40
16172;DHT22;8192;53.596;10.166;2023-05-10T02:51:06;22.80;26.60
16172;DHT22;8192;53.596;10.166;2023-05-10T02:53:36;22.70;26.70
16172;DHT22;8192;53.596;10.166;2023-05-10T02:56:11;22.80;26.90
16172;DHT22;8192;53.596;10.166;2023-05-10T02:58:39;22.80;26.40
16172;DHT22;8192;53.596;10.166;2023-05-10T03:01:05;22.80;26.30
16172;DHT22;8192;53.596;10.166;2023-05-10T03:03:33;22.80;26.30
16172;DHT22;8192;53.596;10.166;2023-05-10T03:06:00;22.70;26.20
16172;DHT22;8192;53.596;10.166;2023-05-10T03:08:29;22.70;26.00
16172;DHT22;8192;53.596;10.166;2023-05-10T03:11:09;22.70;26.20
16172;DHT22;8192;53.596;10.166;2023-05-10T03:13:46;22.70;26.30
16172;DHT22;8192;53.596;10.166;2023-05-10T03:16:18;22.70;26.20
16172;DHT22;8192;53.596;10.166;2023-05-10T03:18:55;22.70;26.40
16172;DHT22;8192;53.596;10.166;2023-05-10T03:21:26;22.70;26.30
16172;DHT22;8192;53.596;10.166;2023-05-10T03:23:59;22.70;26.30
16172;DHT22;8192;53.596;10.166;2023-05-10T03:26:27;22.70;26.10
16172;DHT22;8192;53.596;10.166;2023-05-10T03:28:55;22.70;26.10
16172;DHT22;8192;53.596;10.166;2023-05-10T03:31:24;22.70;26.50
16172;DHT22;8192;53.596;10.166;2023-05-10T03:33:52;22.70;26.50
16172;DHT22;8192;53.596;10.166;2023-05-10T03:36:24;22.70;26.40
16172;DHT22;8192;53.596;10.166;2023-05-10T03:38:51;22.70;26.10
16172;DHT22;8192;53.596;10.166;2023-05-10T03:41:20;22.70;26.20
16172;DHT22;8192;53.596;10.166;2023-05-10T03:43:47;22.70;26.20
16172;DHT22;8192;53.596;10.166;2023-05-10T03:46:14;22.70;26.20
16172;DHT22;8192;53.596;10.166;2023-05-10T03:48:40;22.70;26.30
16172;DHT22;8192;53.596;10.166;2023-05-10T03:51:07;22.70;26.30
16172;DHT22;8192;53.596;10.166;2023-05-10T03:53:34;22.70;26.30
16172;DHT22;8192;53.596;10.166;2023-05-10T03:56:01;22.70;26.30
16172;DHT22;8192;53.596;10.166;2023-05-10T03:58:29;22.70;26.40
16172;DHT22;8192;53.596;10.166;2023-05-10T04:00:56;22.70;26.30
16172;DHT22;8192;53.596;10.166;2023-05-10T04:03:24;22.70;27.00
16172;DHT22;8192;53.596;10.166;2023-05-10T04:05:59;22.70;26.40
16172;DHT22;8192;53.596;10.166;2023-05-10T04:08:26;22.80;26.30
16172;DHT22;8192;53.596;10.166;2023-05-10T04:10:55;22.80;26.60
16172;DHT22;8192;53.596;10.166;2023-05-10T04:13:32;22.80;26.90
16172;DHT22;8192;53.596;10.166;2023-05-10T04:15:59;22.80;26.70
16172;DHT22;8192;53.596;10.166;2023-05-10T04:18:26;22.80;26.50
16172;DHT22;8192;53.596;10.166;2023-05-10T04:20:52;22.80;26.40
16172;DHT22;8192;53.596;10.166;2023-05-10T04:23:19;22.80;27.30
16172;DHT22;8192;53.596;10.166;2023-05-10T04:25:46;22.80;27.20
16172;DHT22;8192;53.596;10.166;2023-05-10T04:28:15;22.80;27.50
16172;DHT22;8192;53.596;10.166;2023-05-10T04:30:43;22.80;27.40
16172;DHT22;8192;53.596;10.166;2023-05-10T04:33:11;22.80;27.10
16172;DHT22;8192;53.596;10.166;2023-05-10T04:35:37;22.80;27.10
16172;DHT22;8192;53.596;10.166;2023-05-10T04:38:05;22.80;27.20
16172;DHT22;8192;53.596;10.166;2023-05-10T04:40:32;22.80;27.10
16172;DHT22;8192;53.596;10.166;2023-05-10T04:42:59;22.80;27.00
16172;DHT22;8192;53.596;10.166;2023-05-10T04:45:26;22.80;29.40
16172;DHT22;8192;53.596;10.166;2023-05-10T04:47:54;22.80;27.50
16172;DHT22;8192;53.596;10.166;2023-05-10T04:50:21;22.80;27.40
16172;DHT22;8192;53.596;10.166;2023-05-10T04:52:48;22.80;27.30
16172;DHT22;8192;53.596;10.166;2023-05-10T04:55:17;22.80;27.30
16172;DHT22;8192;53.596;10.166;2023-05-10T04:57:44;22.80;27.40
16172;DHT22;8192;53.596;10.166;2023-05-10T05:00:11;22.70;27.20
16172;DHT22;8192;53.596;10.166;2023-05-10T05:02:41;22.70;27.20
16172;DHT22;8192;53.596;10.166;2023-05-10T05:05:10;22.70;27.30
16172;DHT22;8192;53.596;10.166;2023-05-10T05:07:38;22.70;27.40
16172;DHT22;8192;53.596;10.166;2023-05-10T05:11:14;22.80;27.80
16172;DHT22;8192;53.596;10.166;2023-05-10T05:13:42;22.90;27.70
16172;DHT22;8192;53.596;10.166;2023-05-10T05:20:31;23.40;28.00
16172;DHT22;8192;53.596;10.166;2023-05-10T05:22:58;23.30;27.90
16172;DHT22;8192;53.596;10.166;2023-05-10T05:25:25;23.10;27.80
16172;DHT22;8192;53.596;10.166;2023-05-10T05:27:52;23.00;27.80
16172;DHT22;8192;53.596;10.166;2023-05-10T05:30:19;23.00;28.40
16172;DHT22;8192;53.596;10.166;2023-05-10T05:32:46;22.90;28.60
16172;DHT22;8192;53.596;10.166;2023-05-10T05:35:13;22.90;28.70
16172;DHT22;8192;53.596;10.166;2023-05-10T05:37:41;22.90;28.50
16172;DHT22;8192;53.596;10.166;2023-05-10T05:40:11;22.90;28.60
16172;DHT22;8192;53.596;10.166;2023-05-10T05:42:38;22.90;28.70
16172;DHT22;8192;53.596;10.166;2023-05-10T05:45:06;22.90;28.80
16172;DHT22;8192;53.596;10.166;2023-05-10T05:47:34;22.90;28.70
16172;DHT22;8192;53.596;10.166;2023-05-10T05:50:01;22.80;28.30
16172;DHT22;8192;53.596;10.166;2023-05-10T05:52:27;22.80;28.10
16172;DHT22;8192;53.596;10.166;2023-05-10T05:54:56;22.70;28.10
16172;DHT22;8192;53.596;10.166;2023-05-10T05:57:22;22.70;28.20
16172;DHT22;8192;53.596;10.166;2023-05-10T05:59:49;22.70;28.20
16172;DHT22;8192;53.596;10.166;2023-05-10T06:02:16;22.70;28.10
16172;DHT22;8192;53.596;10.166;2023-05-10T06:04:43;22.70;28.00
16172;DHT22;8192;53.596;10.166;2023-05-10T06:07:10;22.70;28.20
16172;DHT22;8192;53.596;10.166;2023-05-10T06:09:37;22.70;28.10
16172;DHT22;8192;53.596;10.166;2023-05-10T06:12:05;22.70;28.20
16172;DHT22;8192;53.596;10.166;2023-05-10T06:14:32;22.70;28.10
16172;DHT22;8192;53.596;10.166;2023-05-10T06:16:59;22.70;28.20
16172;DHT22;8192;53.596;10.166;2023-05-10T06:19:26;22.70;28.30
16172;DHT22;8192;53.596;10.166;2023-05-10T06:21:53;22.70;28.10
16172;DHT22;8192;53.596;10.166;2023-05-10T06:24:19;22.70;28.00
16172;DHT22;8192;53.596;10.166;2023-05-10T06:26:46;22.70;28.00
16172;DHT22;8192;53.596;10.166;2023-05-10T06:29:16;22.70;27.90
16172;DHT22;8192;53.596;10.166;2023-05-10T06:31:43;22.70;27.80
16172;DHT22;8192;53.596;10.166;2023-05-10T06:34:10;22.80;27.70
16172;DHT22;8192;53.596;10.166;2023-05-10T06:36:37;22.80;27.80
16172;DHT22;8192;53.596;10.166;2023-05-10T06:39:04;22.80;27.80
16172;DHT22;8192;53.596;10.166;2023-05-10T06:41:32;22.70;27.90
16172;DHT22;8192;53.596;10.166;2023-05-10T06:43:58;22.70;27.80
16172;DHT22;8192;53.596;10.166;2023-05-10T06:46:27;22.70;27.90
16172;DHT22;8192;53.596;10.166;2023-05-10T06:48:53;22.80;28.00
16172;DHT22;8192;53.596;10.166;2023-05-10T06:51:20;22.70;27.90
16172;DHT22;8192;53.596;10.166;2023-05-10T06:53:47;22.70;28.20
16172;DHT22;8192;53.596;10.166;2023-05-10T06:56:14;22.80;27.70
16172;DHT22;8192;53.596;10.166;2023-05-10T06:58:41;22.80;27.70
16172;DHT22;8192;53.596;10.166;2023-05-10T07:01:08;22.80;27.80
16172;DHT22;8192;53.596;10.166;2023-05-10T07:03:36;22.80;28.00
16172;DHT22;8192;53.596;10.166;2023-05-10T07:06:03;22.80;28.10
16172;DHT22;8192;53.596;10.166;2023-05-10T07:08:31;22.80;28.00
16172;DHT22;8192;53.596;10.166;2023-05-10T07:11:02;22.80;28.00
16172;DHT22;8192;53.596;10.166;2023-05-10T07:13:29;22.80;28.00
16172;DHT22;8192;53.596;10.166;2023-05-10T07:15:56;22.80;27.90
16172;DHT22;8192;53.596;10.166;2023-05-10T07:18:23;22.80;28.00
16172;DHT22;8192;53.596;10.166;2023-05-10T07:20:52;22.80;28.00
16172;DHT22;8192;53.596;10.166;2023-05-10T07:23:19;22.80;28.10
16172;DHT22;8192;53.596;10.166;2023-05-10T07:25:46;22.80;28.00
16172;DHT22;8192;53.596;10.166;2023-05-10T07:28:14;22.80;28.10
16172;DHT22;8192;53.596;10.166;2023-05-10T07:30:42;22.70;28.10
16172;DHT22;8192;53.596;10.166;2023-05-10T07:33:10;22.70;28.00
16172;DHT22;8192;53.596;10.166;2023-05-10T07:35:37;22.70;28.10
16172;DHT22;8192;53.596;10.166;2023-05-10T07:38:06;22.70;28.10
16172;DHT22;8192;53.596;10.166;2023-05-10T07:40:32;22.70;28.10
16172;DHT22;8192;53.596;10.166;2023-05-10T07:42:59;22.80;28.10
16172;DHT22;8192;53.596;10.166;2023-05-10T07:45:27;22.80;28.00
16172;DHT22;8192;53.596;10.166;2023-05-10T07:47:54;22.70;28.00
16172;DHT22;8192;53.596;10.166;2023-05-10T07:50:21;22.70;28.00
16172;DHT22;8192;53.596;10.166;2023-05-10T07:52:51;22.70;28.00
16172;DHT22;8192;53.596;10.166;2023-05-10T07:55:20;22.70;28.10
16172;DHT22;8192;53.596;10.166;2023-05-10T07:57:47;22.70;28.10
16172;DHT22;8192;53.596;10.166;2023-05-10T08:00:17;22.70;28.10
16172;DHT22;8192;53.596;10.166;2023-05-10T08:02:44;22.70;28.60
16172;DHT22;8192;53.596;10.166;2023-05-10T08:05:11;22.70;28.30
16172;DHT22;8192;53.596;10.166;2023-05-10T08:07:38;22.70;28.10
16172;DHT22;8192;53.596;10.166;2023-05-10T08:10:06;22.70;28.10
16172;DHT22;8192;53.596;10.166;2023-05-10T08:12:34;22.70;28.10
16172;DHT22;8192;53.596;10.166;2023-05-10T08:15:01;22.70;28.00
16172;DHT22;8192;53.596;10.166;2023-05-10T08:17:28;22.70;28.10
16172;DHT22;8192;53.596;10.166;2023-05-10T08:19:55;22.80;28.10
16172;DHT22;8192;53.596;10.166;2023-05-10T08:22:22;22.70;28.00
16172;DHT22;8192;53.596;10.166;2023-05-10T08:24:49;22.80;28.10
16172;DHT22;8192;53.596;10.166;2023-05-10T08:27:16;22.80;28.10
16172;DHT22;8192;53.596;10.166;2023-05-10T08:29:44;22.70;28.10
16172;DHT22;8192;53.596;10.166;2023-05-10T08:32:11;22.80;28.10
16172;DHT22;8192;53.596;10.166;2023-05-10T08:34:37;22.70;28.00
16172;DHT22;8192;53.596;10.166;2023-05-10T08:37:04;22.80;28.10
16172;DHT22;8192;53.596;10.166;2023-05-10T08:39:34;22.80;28.10
16172;DHT22;8192;53.596;10.166;2023-05-10T08:42:03;22.80;28.10
16172;DHT22;8192;53.596;10.166;2023-05-10T08:44:32;22.80;28.10
16172;DHT22;8192;53.596;10.166;2023-05-10T08:47:02;22.80;28.10
16172;DHT22;8192;53.596;10.166;2023-05-10T08:49:31;22.80;28.20
16172;DHT22;8192;53.596;10.166;2023-05-10T08:52:01;22.80;28.10
16172;DHT22;8192;53.596;10.166;2023-05-10T08:54:30;22.80;28.10
16172;DHT22;8192;53.596;10.166;2023-05-10T08:56:57;22.80;28.10
16172;DHT22;8192;53.596;10.166;2023-05-10T08:59:25;22.80;28.20
16172;DHT22;8192;53.596;10.166;2023-05-10T09:01:52;22.80;28.10
16172;DHT22;8192;53.596;10.166;2023-05-10T09:04:21;22.80;28.10
16172;DHT22;8192;53.596;10.166;2023-05-10T09:06:49;22.80;28.10
16172;DHT22;8192;53.596;10.166;2023-05-10T09:09:17;22.80;28.20
16172;DHT22;8192;53.596;10.166;2023-05-10T09:11:44;22.80;28.10
16172;DHT22;8192;53.596;10.166;2023-05-10T09:14:11;22.80;28.10
16172;DHT22;8192;53.596;10.166;2023-05-10T09:16:39;22.80;28.10
16172;DHT22;8192;53.596;10.166;2023-05-10T09:19:06;22.80;28.00
16172;DHT22;8192;53.596;10.166;2023-05-10T09:21:36;22.80;28.10
16172;DHT22;8192;53.596;10.166;2023-05-10T09:24:04;22.80;28.10
16172;DHT22;8192;53.596;10.166;2023-05-10T09:26:34;22.80;28.10
16172;DHT22;8192;53.596;10.166;2023-05-10T09:49:31;23.50;26.70
16172;DHT22;8192;53.596;10.166;2023-05-10T09:52:02;23.50;27.00
16172;DHT22;8192;53.596;10.166;2023-05-10T09:54:30;23.40;27.00
16172;DHT22;8192;53.596;10.166;2023-05-10T09:56:57;23.20;27.10
16172;DHT22;8192;53.596;10.166;2023-05-10T09:59:25;23.10;27.40
16172;DHT22;8192;53.596;10.166;2023-05-10T10:01:54;23.00;27.30
16172;DHT22;8192;53.596;10.166;2023-05-10T10:04:22;23.00;27.40
16172;DHT22;8192;53.596;10.166;2023-05-10T10:07:00;23.00;27.70
16172;DHT22;8192;53.596;10.166;2023-05-10T10:09:28;23.00;27.70
16172;DHT22;8192;53.596;10.166;2023-05-10T10:11:55;23.00;27.60
16172;DHT22;8192;53.596;10.166;2023-05-10T10:14:22;23.00;27.60
16172;DHT22;8192;53.596;10.166;2023-05-10T10:16:49;23.00;28.20
16172;DHT22;8192;53.596;10.166;2023-05-10T10:19:17;23.00;27.90
16172;DHT22;8192;53.596;10.166;2023-05-10T10:21:44;22.90;28.10
16172;DHT22;8192;53.596;10.166;2023-05-10T10:24:12;23.00;29.10
16172;DHT22;8192;53.596;10.166;2023-05-10T10:26:40;23.10;28.70
16172;DHT22;8192;53.596;10.166;2023-05-10T10:29:16;23.20;29.30
16172;DHT22;8192;53.596;10.166;2023-05-10T10:31:48;23.30;28.10
16172;DHT22;8192;53.596;10.166;2023-05-10T10:34:25;23.30;28.30
16172;DHT22;8192;53.596;10.166;2023-05-10T10:36:54;23.40;27.60
16172;DHT22;8192;53.596;10.166;2023-05-10T10:39:24;23.40;27.80
16172;DHT22;8192;53.596;10.166;2023-05-10T10:41:52;23.30;27.70
16172;DHT22;8192;53.596;10.166;2023-05-10T10:44:23;23.20;28.00
16172;DHT22;8192;53.596;10.166;2023-05-10T10:47:01;23.20;27.80
16172;DHT22;8192;53.596;10.166;2023-05-10T10:49:31;23.10;28.40
16172;DHT22;8192;53.596;10.166;2023-05-10T10:52:30;23.10;28.20
16172;DHT22;8192;53.596;10.166;2023-05-10T10:55:05;23.00;28.30
16172;DHT22;8192;53.596;10.166;2023-05-10T10:57:43;23.00;28.40
16172;DHT22;8192;53.596;10.166;2023-05-10T11:00:27;23.00;28.50
16172;DHT22;8192;53.596;10.166;2023-05-10T11:02:57;23.00;28.60
16172;DHT22;8192;53.596;10.166;2023-05-10T11:05:39;22.90;28.60
16172;DHT22;8192;53.596;10.166;2023-05-10T11:08:15;22.90;28.70
16172;DHT22;8192;53.596;10.166;2023-05-10T11:11:05;22.80;28.90
16172;DHT22;8192;53.596;10.166;2023-05-10T11:13:36;22.80;29.00
16172;DHT22;8192;53.596;10.166;2023-05-10T11:16:15;22.70;29.30
16172;DHT22;8192;53.596;10.166;2023-05-10T11:18:53;22.70;29.50
16172;DHT22;8192;53.596;10.166;2023-05-10T11:21:20;22.60;29.30
16172;DHT22;8192;53.596;10.166;2023-05-10T11:23:49;22.70;29.60
16172;DHT22;8192;53.596;10.166;2023-05-10T11:26:18;22.60;29.50
16172;DHT22;8192;53.596;10.166;2023-05-10T11:28:49;22.60;29.60
16172;DHT22;8192;53.596;10.166;2023-05-10T11:31:17;22.60;29.80
16172;DHT22;8192;53.596;10.166;2023-05-10T11:33:45;22.60;29.70
16172;DHT22;8192;53.596;10.166;2023-05-10T11:36:13;22.50;30.00
16172;DHT22;8192;53.596;10.166;2023-05-10T11:38:40;22.50;30.40
16172;DHT22;8192;53.596;10.166;2023-05-10T11:41:08;22.50;30.50
16172;DHT22;8192;53.596;10.166;2023-05-10T11:43:38;22.50;30.50
16172;DHT22;8192;53.596;10.166;2023-05-10T11:46:07;22.60;30.50
16172;DHT22;8192;53.596;10.166;2023-05-10T11:48:34;22.60;30.70
16172;DHT22;8192;53.596;10.166;2023-05-10T11:51:01;22.60;31.10
16172;DHT22;8192;53.596;10.166;2023-05-10T11:53:30;22.60;30.80
16172;DHT22;8192;53.596;10.166;2023-05-10T11:56:02;22.60;30.00
16172;DHT22;8192;53.596;10.166;2023-05-10T11:58:30;22.70;30.00
16172;DHT22;8192;53.596;10.166;2023-05-10T12:00:59;22.70;30.00
16172;DHT22;8192;53.596;10.166;2023-05-10T12:03:27;22.70;29.90
16172;DHT22;8192;53.596;10.166;2023-05-10T12:05:55;22.80;29.90
16172;DHT22;8192;53.596;10.166;2023-05-10T12:08:24;22.80;29.80
16172;DHT22;8192;53.596;10.166;2023-05-10T12:10:51;22.80;29.50
16172;DHT22;8192;53.596;10.166;2023-05-10T12:13:20;22.80;29.60
16172;DHT22;8192;53.596;10.166;2023-05-10T12:15:46;22.80;29.40
16172;DHT22;8192;53.596;10.166;2023-05-10T12:18:15;22.80;29.30
16172;DHT22;8192;53.596;10.166;2023-05-10T12:20:51;22.80;29.30
16172;DHT22;8192;53.596;10.166;2023-05-10T12:23:20;22.80;29.30
16172;DHT22;8192;53.596;10.166;2023-05-10T12:25:46;22.90;29.60
16172;DHT22;8192;53.596;10.166;2023-05-10T12:28:13;22.90;29.50
16172;DHT22;8192;53.596;10.166;2023-05-10T12:30:40;23.00;29.40
16172;DHT22;8192;53.596;10.166;2023-05-10T12:33:10;22.90;29.50
16172;DHT22;8192;53.596;10.166;2023-05-10T12:35:46;22.90;29.40
16172;DHT22;8192;53.596;10.166;2023-05-10T12:38:26;22.90;29.40
16172;DHT22;8192;53.596;10.166;2023-05-10T12:40:55;22.90;29.30
16172;DHT22;8192;53.596;10.166;2023-05-10T12:43:22;22.90;29.40
16172;DHT22;8192;53.596;10.166;2023-05-10T12:45:49;22.90;29.30
16172;DHT22;8192;53.596;10.166;2023-05-10T12:48:16;22.80;29.20
16172;DHT22;8192;53.596;10.166;2023-05-10T12:50:42;22.80;29.20
16172;DHT22;8192;53.596;10.166;2023-05-10T12:53:11;22.90;29.30
16172;DHT22;8192;53.596;10.166;2023-05-10T12:55:39;22.80;29.20
16172;DHT22;8192;53.596;10.166;2023-05-10T12:58:06;22.90;29.20
16172;DHT22;8192;53.596;10.166;2023-05-10T13:00:32;22.80;29.10
16172;DHT22;8192;53.596;10.166;2023-05-10T13:02:59;22.80;29.10
16172;DHT22;8192;53.596;10.166;2023-05-10T13:05:26;22.80;29.10
16172;DHT22;8192;53.596;10.166;2023-05-10T13:07:53;22.90;29.10
16172;DHT22;8192;53.596;10.166;2023-05-10T13:10:22;22.80;29.00
16172;DHT22;8192;53.596;10.166;2023-05-10T13:12:49;22.80;29.00
16172;DHT22;8192;53.596;10.166;2023-05-10T13:15:16;22.90;29.00
16172;DHT22;8192;53.596;10.166;2023-05-10T13:17:43;22.90;29.00
16172;DHT22;8192;53.596;10.166;2023-05-10T13:20:11;22.80;28.90
16172;DHT22;8192;53.596;10.166;2023-05-10T13:22:38;22.80;28.90
16172;DHT22;8192;53.596;10.166;2023-05-10T13:25:05;22.80;28.90
16172;DHT22;8192;53.596;10.166;2023-05-10T13:27:33;22.80;28.90
16172;DHT22;8192;53.596;10.166;2023-05-10T13:30:00;22.80;28.90
16172;DHT22;8192;53.596;10.166;2023-05-10T13:32:28;22.90;29.60
16172;DHT22;8192;53.596;10.166;2023-05-10T13:34:55;22.90;29.70
16172;DHT22;8192;53.596;10.166;2023-05-10T13:37:22;22.80;30.00
16172;DHT22;8192;53.596;10.166;2023-05-10T13:39:49;22.80;30.20
16172;DHT22;8192;53.596;10.166;2023-05-10T13:42:17;22.80;30.40
16172;DHT22;8192;53.596;10.166;2023-05-10T13:44:45;22.80;30.30
16172;DHT22;8192;53.596;10.166;2023-05-10T13:47:12;22.80;30.50
16172;DHT22;8192;53.596;10.166;2023-05-10T13:49:39;22.80;30.40
16172;DHT22;8192;53.596;10.166;2023-05-10T13:52:05;22.80;30.30
16172;DHT22;8192;53.596;10.166;2023-05-10T13:54:33;22.80;30.50
16172;DHT22;8192;53.596;10.166;2023-05-10T13:56:59;22.80;30.60
16172;DHT22;8192;53.596;10.166;2023-05-10T13:59:26;22.80;30.60
16172;DHT22;8192;53.596;10.166;2023-05-10T14:01:55;22.80;30.50
16172;DHT22;8192;53.596;10.166;2023-05-10T14:04:21;22.80;30.50
16172;DHT22;8192;53.596;10.166;2023-05-10T14:06:48;22.80;30.50
16172;DHT22;8192;53.596;10.166;2023-05-10T14:09:15;22.80;30.50
16172;DHT22;8192;53.596;10.166;2023-05-10T14:11:44;22.80;30.50
16172;DHT22;8192;53.596;10.166;2023-05-10T14:14:11;22.80;30.40
16172;DHT22;8192;53.596;10.166;2023-05-10T14:16:38;22.80;30.40
16172;DHT22;8192;53.596;10.166;2023-05-10T14:19:06;22.90;31.10
16172;DHT22;8192;53.596;10.166;2023-05-10T14:21:33;22.90;30.40
16172;DHT22;8192;53.596;10.166;2023-05-10T14:24:00;22.80;30.40
16172;DHT22;8192;53.596;10.166;2023-05-10T14:26:27;22.90;30.50
16172;DHT22;8192;53.596;10.166;2023-05-10T14:28:54;22.80;30.40
16172;DHT22;8192;53.596;10.166;2023-05-10T14:31:20;22.80;30.40
16172;DHT22;8192;53.596;10.166;2023-05-10T14:33:50;22.80;30.50
16172;DHT22;8192;53.596;10.166;2023-05-10T14:36:18;22.80;30.40
16172;DHT22;8192;53.596;10.166;2023-05-10T14:38:45;22.80;30.40
16172;DHT22;8192;53.596;10.166;2023-05-10T14:41:12;22.80;30.40
16172;DHT22;8192;53.596;10.166;2023-05-10T14:43:40;22.80;30.40
16172;DHT22;8192;53.596;10.166;2023-05-10T14:46:07;22.80;30.30
16172;DHT22;8192;53.596;10.166;2023-05-10T14:48:34;22.80;30.30
16172;DHT22;8192;53.596;10.166;2023-05-10T14:51:01;22.80;30.30
16172;DHT22;8192;53.596;10.166;2023-05-10T14:53:30;22.80;30.30
16172;DHT22;8192;53.596;10.166;2023-05-10T14:55:58;22.80;30.40
16172;DHT22;8192;53.596;10.166;2023-05-10T14:58:25;22.80;30.30
16172;DHT22;8192;53.596;10.166;2023-05-10T15:00:52;22.80;30.40
16172;DHT22;8192;53.596;10.166;2023-05-10T15:03:19;22.80;30.40
16172;DHT22;8192;53.596;10.166;2023-05-10T15:05:46;22.90;30.40
16172;DHT22;8192;53.596;10.166;2023-05-10T15:08:13;22.80;30.30
16172;DHT22;8192;53.596;10.166;2023-05-10T15:10:41;22.80;30.40
16172;DHT22;8192;53.596;10.166;2023-05-10T15:13:08;22.90;30.50
16172;DHT22;8192;53.596;10.166;2023-05-10T15:15:35;22.80;30.50
16172;DHT22;8192;53.596;10.166;2023-05-10T15:18:02;22.80;30.80
16172;DHT22;8192;53.596;10.166;2023-05-10T15:20:29;22.90;31.10
16172;DHT22;8192;53.596;10.166;2023-05-10T15:22:56;22.90;30.90
16172;DHT22;8192;53.596;10.166;2023-05-10T15:25:23;22.90;30.90
16172;DHT22;8192;53.596;10.166;2023-05-10T15:27:53;22.90;30.70
16172;DHT22;8192;53.596;10.166;2023-05-10T15:30:19;22.90;30.70
16172;DHT22;8192;53.596;10.166;2023-05-10T15:32:46;22.90;30.80
16172;DHT22;8192;53.596;10.166;2023-05-10T15:35:14;22.90;30.90
16172;DHT22;8192;53.596;10.166;2023-05-10T15:37:40;22.90;31.30
16172;DHT22;8192;53.596;10.166;2023-05-10T15:40:08;22.90;31.20
16172;DHT22;8192;53.596;10.166;2023-05-10T15:42:35;23.00;31.50
16172;DHT22;8192;53.596;10.166;2023-05-10T15:45:04;23.00;31.80
16172;DHT22;8192;53.596;10.166;2023-05-10T15:47:31;23.00;32.10
16172;DHT22;8192;53.596;10.166;2023-05-10T15:49:58;23.00;32.20
16172;DHT22;8192;53.596;10.166;2023-05-10T15:52:25;22.90;32.50
16172;DHT22;8192;53.596;10.166;2023-05-10T15:54:52;23.00;32.50
16172;DHT22;8192;53.596;10.166;2023-05-10T15:57:19;22.90;32.20
16172;DHT22;8192;53.596;10.166;2023-05-10T15:59:46;22.90;32.50
16172;DHT22;8192;53.596;10.166;2023-05-10T16:02:15;22.90;32.10
16172;DHT22;8192;53.596;10.166;2023-05-10T16:04:43;22.90;32.10
16172;DHT22;8192;53.596;10.166;2023-05-10T16:07:11;22.90;32.20